createdAt,value
2022-12-11T00:00:45.236Z,48.95
2022-12-11T00:03:16.109Z,45.03
2022-12-11T00:06:00.506Z,46.90
2022-12-11T00:08:28.384Z,43.15
2022-12-11T00:14:15.155Z,42.85
2022-12-11T00:16:43.299Z,42.65
2022-12-11T00:19:30.356Z,41.40
2022-12-11T00:22:00.179Z,41.67
2022-12-11T00:24:51.051Z,42.15
2022-12-11T00:27:25.549Z,42.75
2022-12-11T00:29:53.500Z,47.75
2022-12-11T00:32:45.590Z,39.33
2022-12-11T00:35:16.955Z,44.97
2022-12-11T00:40:58.729Z,44.78
2022-12-11T00:43:30.777Z,53.70
2022-12-11T00:46:20.591Z,52.50
2022-12-11T00:52:19.243Z,54.72
2022-12-11T00:55:03.481Z,64.43
2022-12-11T00:58:08.747Z,61.25
2022-12-11T01:00:45.244Z,61.95
2022-12-11T01:03:15.969Z,63.15
2022-12-11T01:05:44.119Z,62.67
2022-12-11T01:08:21.579Z,78.97
2022-12-11T01:10:54.187Z,71.45
2022-12-11T01:13:23.312Z,69.63
2022-12-11T01:16:12.023Z,71.15
2022-12-11T01:18:47.326Z,62.03
2022-12-11T01:21:16.537Z,66.32
2022-12-11T01:23:51.122Z,69.53
2022-12-11T01:26:26.014Z,75.88
2022-12-11T01:29:02.753Z,68.60
2022-12-11T01:31:55.553Z,58.95
2022-12-11T01:34:41.248Z,64.95
2022-12-11T01:37:30.018Z,62.80
2022-12-11T01:39:58.909Z,59.85
2022-12-11T03:45:26.158Z,79.20
2022-12-11T03:54:38.513Z,89.93
2022-12-11T04:00:26.592Z,76.13
2022-12-11T04:03:16.308Z,80.35
2022-12-11T04:12:31.876Z,76.70
2022-12-11T04:15:38.892Z,81.20
2022-12-11T04:18:43.046Z,74.22
2022-12-11T04:21:35.128Z,74.57
2022-12-11T04:24:35.310Z,80.80
2022-12-11T04:27:40.259Z,80.57
2022-12-11T04:30:28.023Z,74.53
2022-12-11T04:32:59.077Z,73.45
2022-12-11T04:35:33.625Z,70.50
2022-12-11T04:38:02.626Z,73.97
2022-12-11T04:40:30.891Z,75.15
2022-12-11T04:42:59.166Z,70.22
2022-12-11T04:45:30.689Z,85.72
2022-12-11T04:48:10.140Z,76.45
2022-12-11T04:50:49.735Z,79.25
2022-12-11T04:53:17.573Z,72.15
2022-12-11T04:56:02.032Z,70.10
2022-12-11T04:58:35.016Z,72.30
2022-12-11T05:01:08.957Z,67.50
2022-12-11T05:03:37.776Z,65.18
2022-12-11T05:06:08.978Z,63.42
2022-12-11T05:08:38.280Z,68.55
2022-12-11T05:11:11.378Z,56.22
2022-12-11T05:14:05.464Z,55.80
2022-12-11T05:20:27.668Z,60.28
2022-12-11T05:23:08.601Z,50.45
2022-12-11T05:38:36.825Z,48.03
2022-12-11T05:44:30.744Z,65.35
2022-12-11T05:47:42.407Z,59.70
2022-12-11T13:32:50.777Z,28.35
2022-12-11T13:36:04.192Z,30.75
2022-12-11T13:48:47.291Z,24.20
2022-12-11T13:54:52.260Z,28.75
2022-12-11T13:57:43.341Z,25.38
2022-12-11T14:00:50.767Z,26.73
2022-12-11T14:27:38.511Z,25.17
2022-12-11T14:29:36.399Z,28.60
2022-12-11T14:35:35.576Z,29.13
2022-12-11T14:38:34.849Z,25.85
2022-12-11T14:41:08.718Z,24.30
2022-12-11T14:43:46.727Z,30.92
2022-12-11T14:46:26.246Z,29.42
2022-12-11T14:58:47.918Z,36.80
2022-12-11T15:01:39.153Z,41.00
2022-12-11T15:04:32.025Z,32.65
2022-12-11T15:07:39.213Z,33.17
2022-12-11T15:10:43.220Z,30.65
2022-12-11T15:16:38.205Z,33.85
2022-12-11T15:22:22.192Z,31.95
2022-12-11T15:25:20.064Z,37.47
2022-12-11T15:28:06.288Z,35.22
2022-12-11T15:30:59.941Z,37.20
2022-12-11T15:34:00.263Z,29.13
2022-12-11T15:36:34.959Z,34.50
2022-12-11T15:39:14.878Z,34.42
2022-12-11T15:41:45.734Z,32.67
2022-12-11T15:44:30.404Z,33.67
2022-12-11T15:47:13.660Z,34.95
2022-12-11T15:52:40.243Z,37.42
2022-12-11T15:58:36.429Z,33.25
2022-12-11T16:05:11.379Z,36.15
2022-12-11T16:08:30.256Z,34.05
2022-12-11T16:11:22.428Z,36.53
2022-12-11T16:20:41.534Z,40.50
2022-12-11T16:23:22.993Z,43.05
2022-12-11T16:26:15.634Z,35.78
2022-12-11T16:29:05.541Z,40.17
2022-12-11T16:31:37.268Z,41.33
2022-12-11T16:34:15.282Z,41.92
2022-12-11T16:36:52.066Z,42.88
2022-12-11T16:39:19.869Z,39.95
2022-12-11T16:41:47.834Z,44.42
2022-12-11T16:44:23.217Z,40.20
2022-12-11T16:46:51.807Z,38.25
2022-12-11T16:49:35.447Z,39.28
2022-12-11T16:52:10.123Z,41.38
2022-12-11T16:54:56.009Z,39.00
2022-12-11T16:57:31.027Z,39.95
2022-12-11T17:00:06.785Z,40.22
2022-12-11T17:02:51.979Z,45.28
2022-12-11T17:05:31.546Z,39.15
2022-12-11T17:08:06.808Z,43.00
2022-12-11T17:10:44.042Z,36.80
2022-12-11T17:13:32.991Z,42.45
2022-12-11T17:16:10.120Z,46.88
2022-12-11T17:18:38.300Z,43.65
2022-12-11T17:21:12.108Z,42.10
2022-12-11T17:23:42.304Z,49.53
2022-12-11T17:26:18.612Z,37.95
2022-12-11T17:29:11.630Z,34.63
2022-12-11T17:31:40.520Z,37.17
2022-12-11T17:34:10.453Z,33.40
2022-12-11T17:36:44.602Z,36.58
2022-12-11T17:42:37.854Z,42.40
2022-12-11T17:45:09.316Z,33.75
2022-12-11T17:47:41.247Z,38.60
2022-12-11T18:50:07.953Z,31.38
2022-12-11T20:11:36.509Z,29.00
2022-12-11T22:41:16.354Z,24.77
2022-12-11T23:50:48.930Z,21.15
